createdAt,value
2018-02-22T00:01:03.435Z,24.00
2018-02-22T00:03:31.392Z,15.07
2018-02-22T00:05:59.579Z,25.02
2018-02-22T00:08:27.745Z,15.07
2018-02-22T00:10:55.926Z,17.90
2018-02-22T00:13:24.091Z,24.00
2018-02-22T00:15:52.170Z,20.55
2018-02-22T00:18:20.445Z,22.17
2018-02-22T00:20:48.609Z,16.90
2018-02-22T00:23:16.794Z,24.45
2018-02-22T00:25:44.967Z,22.73
2018-02-22T00:28:13.139Z,23.58
2018-02-22T00:30:41.211Z,19.92
2018-02-22T00:33:09.274Z,18.90
2018-02-22T00:35:37.238Z,19.42
2018-02-22T00:38:05.441Z,15.02
2018-02-22T00:40:34.307Z,13.90
2018-02-22T00:43:02.481Z,14.85
2018-02-22T00:45:30.444Z,12.07
2018-02-22T00:47:58.631Z,19.25
2018-02-22T00:50:27.302Z,16.20
2018-02-22T00:52:55.374Z,16.45
2018-02-22T00:55:23.456Z,20.80
2018-02-22T00:57:51.516Z,16.02
2018-02-22T01:00:19.701Z,13.43
2018-02-22T01:02:47.975Z,14.38
2018-02-22T01:05:16.038Z,17.25
2018-02-22T01:07:44.734Z,11.77
2018-02-22T01:10:12.799Z,15.65
2018-02-22T01:12:40.870Z,9.60
2018-02-22T01:15:09.460Z,19.90
2018-02-22T01:17:37.735Z,17.05
2018-02-22T01:20:06.011Z,11.32
2018-02-22T01:22:34.088Z,14.57
2018-02-22T01:25:02.141Z,12.02
2018-02-22T01:27:30.326Z,13.75
2018-02-22T01:29:59.926Z,16.08
2018-02-22T01:32:28.100Z,15.65
2018-02-22T01:34:56.997Z,9.20
2018-02-22T01:37:25.056Z,12.37
2018-02-22T01:39:53.241Z,8.75
2018-02-22T01:42:21.118Z,10.95
2018-02-22T01:44:49.270Z,10.95
2018-02-22T01:47:17.237Z,14.40
2018-02-22T01:49:45.321Z,10.32
2018-02-22T01:52:13.393Z,16.17
2018-02-22T01:54:42.168Z,9.77
2018-02-22T01:57:10.245Z,10.45
2018-02-22T01:59:38.425Z,14.80
2018-02-22T02:02:06.586Z,9.65
2018-02-22T02:04:34.759Z,7.35
2018-02-22T02:07:02.831Z,8.90
2018-02-22T02:09:30.698Z,10.05
2018-02-22T02:11:58.882Z,9.27
2018-02-22T02:14:26.952Z,7.55
2018-02-22T02:16:55.118Z,8.38
2018-02-22T02:19:23.083Z,6.90
2018-02-22T02:21:52.293Z,8.13
2018-02-22T02:24:20.468Z,8.15
2018-02-22T02:26:48.743Z,6.35
2018-02-22T02:29:16.918Z,5.45
2018-02-22T02:31:44.977Z,8.27
2018-02-22T02:34:13.059Z,6.07
2018-02-22T02:36:41.775Z,7.22
2018-02-22T02:39:10.626Z,13.60
2018-02-22T02:41:38.692Z,5.53
2018-02-22T02:44:06.981Z,7.78
2018-02-22T02:46:34.937Z,8.60
2018-02-22T02:49:03.727Z,7.87
2018-02-22T02:51:31.912Z,6.80
2018-02-22T02:54:00.230Z,6.47
2018-02-22T02:56:28.353Z,6.57
2018-02-22T02:58:56.316Z,6.40
2018-02-22T03:01:24.503Z,4.57
2018-02-22T03:03:52.500Z,6.97
2018-02-22T03:06:21.353Z,9.55
2018-02-22T03:08:49.420Z,8.55
2018-02-22T03:11:17.599Z,5.82
2018-02-22T03:13:45.882Z,6.03
2018-02-22T03:16:13.839Z,5.70
2018-02-22T03:18:41.913Z,6.30
2018-02-22T03:21:10.094Z,5.80
2018-02-22T03:23:38.156Z,5.80
2018-02-22T03:26:06.227Z,4.20
2018-02-22T03:28:35.122Z,5.37
2018-02-22T03:31:03.010Z,7.07
2018-02-22T03:33:31.872Z,5.87
2018-02-22T03:35:59.948Z,5.10
2018-02-22T03:38:28.122Z,6.97
2018-02-22T03:40:56.814Z,4.37
2018-02-22T03:43:24.887Z,6.40
2018-02-22T03:45:52.944Z,5.68
2018-02-22T03:48:20.915Z,5.00
2018-02-22T03:50:49.088Z,5.82
2018-02-22T03:53:17.271Z,5.60
2018-02-22T03:55:45.433Z,4.97
2018-02-22T03:58:13.500Z,7.80
2018-02-22T04:00:42.292Z,9.23
2018-02-22T04:03:10.468Z,7.30
2018-02-22T04:05:38.753Z,11.85
2018-02-22T04:08:06.908Z,8.65
2018-02-22T04:10:34.997Z,5.82
2018-02-22T04:13:03.057Z,5.68
2018-02-22T04:15:31.139Z,8.50
2018-02-22T04:18:00.024Z,6.95
2018-02-22T04:20:29.227Z,5.95
2018-02-22T04:22:57.402Z,6.20
2018-02-22T04:25:25.563Z,6.20
2018-02-22T04:27:53.749Z,7.20
2018-02-22T04:30:21.820Z,8.50
2018-02-22T04:32:49.988Z,7.90
2018-02-22T04:35:18.154Z,7.40
2018-02-22T04:37:46.330Z,8.98
2018-02-22T04:40:14.399Z,7.85
2018-02-22T04:42:42.475Z,10.75
2018-02-22T04:45:10.557Z,6.85
2018-02-22T04:47:39.753Z,8.98
2018-02-22T04:50:07.924Z,9.80
2018-02-22T04:52:35.983Z,10.05
2018-02-22T04:55:04.054Z,8.05
2018-02-22T04:57:32.026Z,10.75
2018-02-22T05:00:00.109Z,8.10
2018-02-22T05:02:28.270Z,12.37
2018-02-22T05:04:56.457Z,12.65
2018-02-22T05:07:24.672Z,13.62
2018-02-22T05:09:52.800Z,17.95
2018-02-22T05:12:20.973Z,14.05
2018-02-22T05:14:49.135Z,12.80
2018-02-22T05:17:17.208Z,11.32
2018-02-22T05:19:45.271Z,16.33
2018-02-22T05:22:13.351Z,11.45
2018-02-22T05:24:41.424Z,13.62
2018-02-22T05:27:09.540Z,14.57
2018-02-22T05:29:40.215Z,18.33
2018-02-22T05:32:08.403Z,14.75
2018-02-22T05:34:36.468Z,15.93
2018-02-22T05:37:04.641Z,14.43
2018-02-22T05:39:32.609Z,16.23
2018-02-22T05:42:00.899Z,20.40
2018-02-22T05:44:29.065Z,15.85
2018-02-22T05:46:57.059Z,16.00
2018-02-22T05:49:25.923Z,18.40
2018-02-22T05:51:54.092Z,23.17
2018-02-22T05:54:22.174Z,23.10
2018-02-22T05:56:50.350Z,15.52
2018-02-22T05:59:18.412Z,15.65
2018-02-22T06:01:46.586Z,15.98
2018-02-22T06:04:14.755Z,17.27
2018-02-22T06:06:42.932Z,19.45
2018-02-22T06:09:11.106Z,25.40
2018-02-22T06:11:39.071Z,19.30
2018-02-22T06:14:07.098Z,20.62
2018-02-22T06:16:35.224Z,17.75
2018-02-22T06:19:03.398Z,16.65
2018-02-22T06:21:31.456Z,16.85
2018-02-22T06:23:59.634Z,16.75
2018-02-22T06:26:27.713Z,23.95
2018-02-22T06:28:55.876Z,21.83
2018-02-22T06:31:23.947Z,21.23
2018-02-22T06:33:52.125Z,23.65
2018-02-22T06:36:20.298Z,31.05
2018-02-22T06:38:48.472Z,22.00
2018-02-22T06:41:17.254Z,18.65
2018-02-22T06:43:45.440Z,24.52
2018-02-22T06:46:13.510Z,25.85
2018-02-22T06:48:41.471Z,25.05
2018-02-22T06:51:09.641Z,25.58
2018-02-22T06:53:37.815Z,24.87
2018-02-22T06:56:05.886Z,21.23
2018-02-22T06:58:33.960Z,24.00
2018-02-22T07:01:02.133Z,26.08
2018-02-22T07:03:30.315Z,28.80
2018-02-22T07:05:58.485Z,30.00
2018-02-22T07:08:26.547Z,21.67
2018-02-22T07:10:54.734Z,32.75
2018-02-22T07:13:22.908Z,24.45
2018-02-22T07:15:50.969Z,27.30
2018-02-22T07:18:19.309Z,28.50
2018-02-22T07:20:47.530Z,26.67
2018-02-22T07:23:16.791Z,18.98
2018-02-22T07:25:43.877Z,29.58
2018-02-22T07:28:12.045Z,20.85
2018-02-22T07:30:40.223Z,21.25
2018-02-22T07:33:09.010Z,22.33
2018-02-22T07:35:37.174Z,22.73
2018-02-22T07:38:05.353Z,21.80
2018-02-22T07:40:33.429Z,28.42
2018-02-22T07:43:01.599Z,20.40
2018-02-22T07:45:29.665Z,30.95
2018-02-22T07:47:57.747Z,22.70
2018-02-22T07:50:25.805Z,28.25
2018-02-22T07:52:53.979Z,24.42
2018-02-22T07:55:22.155Z,21.62
2018-02-22T07:57:50.234Z,23.70
2018-02-22T08:00:18.400Z,25.58
2018-02-22T08:02:46.473Z,21.85
2018-02-22T08:05:15.369Z,22.37
2018-02-22T08:07:43.536Z,27.05
2018-02-22T08:10:24.985Z,31.17
2018-02-22T08:12:53.093Z,23.15
2018-02-22T08:15:21.115Z,28.27
2018-02-22T08:17:49.246Z,22.77
2018-02-22T08:20:17.419Z,28.83
2018-02-22T08:22:45.581Z,28.52
2018-02-22T08:25:13.805Z,25.33
2018-02-22T08:27:41.935Z,25.80
2018-02-22T08:30:11.530Z,21.62
2018-02-22T08:32:39.720Z,20.33
2018-02-22T08:35:07.890Z,28.00
2018-02-22T08:37:36.063Z,25.70
2018-02-22T08:40:04.329Z,26.77
2018-02-22T08:42:32.615Z,26.40
2018-02-22T08:45:00.890Z,28.98
2018-02-22T08:47:35.027Z,27.75
2018-02-22T08:50:04.100Z,30.40
2018-02-22T08:52:32.273Z,26.95
2018-02-22T08:55:00.438Z,29.52
2018-02-22T08:57:28.618Z,29.83
2018-02-22T08:59:56.791Z,27.13
2018-02-22T09:02:26.116Z,27.37
2018-02-22T09:04:54.982Z,31.08
2018-02-22T09:07:23.041Z,26.70
2018-02-22T09:09:51.217Z,27.65
2018-02-22T09:12:19.399Z,26.08
2018-02-22T09:14:47.676Z,28.52
2018-02-22T09:17:15.848Z,29.52
2018-02-22T09:19:43.914Z,27.52
2018-02-22T09:22:12.710Z,36.40
2018-02-22T09:24:40.882Z,30.70
2018-02-22T09:27:08.940Z,30.52
2018-02-22T09:29:37.012Z,34.22
2018-02-22T09:32:05.093Z,34.95
2018-02-22T09:34:33.152Z,32.05
2018-02-22T09:37:01.226Z,33.90
2018-02-22T09:39:30.127Z,31.30
2018-02-22T09:41:58.493Z,40.50
2018-02-22T09:44:26.682Z,35.20
2018-02-22T09:46:56.529Z,41.95
2018-02-22T09:49:25.474Z,42.15
2018-02-22T09:51:53.440Z,34.95
2018-02-22T09:54:21.730Z,34.72
2018-02-22T09:56:49.902Z,39.13
2018-02-22T09:59:18.067Z,28.05
2018-02-22T10:01:46.249Z,34.72
2018-02-22T10:04:14.310Z,32.88
2018-02-22T10:06:42.381Z,30.20
2018-02-22T10:09:10.451Z,39.95
2018-02-22T10:11:38.522Z,30.15
2018-02-22T10:14:06.705Z,31.10
2018-02-22T10:16:35.593Z,29.30
2018-02-22T10:19:03.817Z,34.80
2018-02-22T10:21:31.830Z,32.60
2018-02-22T10:24:00.117Z,35.03
2018-02-22T10:26:28.189Z,36.67
2018-02-22T10:28:56.353Z,35.35
2018-02-22T10:31:24.421Z,32.03
2018-02-22T10:33:52.492Z,32.90
2018-02-22T10:36:20.667Z,32.53
2018-02-22T10:38:48.851Z,33.97
2018-02-22T10:41:16.921Z,40.97
2018-02-22T10:43:45.090Z,31.95
2018-02-22T10:46:13.159Z,42.08
2018-02-22T10:48:41.230Z,44.85
2018-02-22T10:51:09.298Z,41.47
2018-02-22T10:53:37.470Z,27.17
2018-02-22T10:56:05.656Z,34.95
2018-02-22T10:58:34.749Z,40.03
2018-02-22T11:01:08.454Z,35.70
2018-02-22T11:03:36.524Z,32.72
2018-02-22T11:06:04.689Z,32.90
2018-02-22T11:08:32.871Z,31.20
2018-02-22T11:11:01.046Z,30.65
2018-02-22T11:13:29.213Z,30.42
2018-02-22T11:15:58.006Z,34.20
2018-02-22T11:18:26.181Z,29.37
2018-02-22T11:20:54.238Z,29.33
2018-02-22T11:23:22.322Z,32.45
2018-02-22T11:25:50.483Z,28.20
2018-02-22T11:28:18.558Z,24.87
2018-02-22T11:30:46.730Z,28.85
2018-02-22T11:33:14.802Z,27.33
2018-02-22T11:35:43.088Z,26.95
2018-02-22T11:38:11.069Z,23.30
2018-02-22T11:40:39.934Z,27.58
2018-02-22T11:43:08.619Z,29.05
2018-02-22T11:45:36.796Z,26.23
2018-02-22T11:48:04.973Z,31.25
2018-02-22T11:50:33.144Z,29.17
2018-02-22T11:53:01.109Z,31.52
2018-02-22T11:55:30.107Z,39.20
2018-02-22T11:57:58.279Z,33.08
2018-02-22T12:00:26.857Z,36.53
2018-02-22T12:02:55.043Z,38.80
2018-02-22T12:05:23.106Z,38.75
2018-02-22T12:07:51.280Z,35.45
2018-02-22T12:10:19.347Z,39.55
2018-02-22T12:12:47.417Z,33.20
2018-02-22T12:15:16.410Z,37.63
2018-02-22T12:17:44.588Z,34.85
2018-02-22T12:20:12.761Z,37.00
2018-02-22T12:22:40.840Z,32.20
2018-02-22T12:25:08.964Z,26.45
2018-02-22T12:27:37.794Z,30.35
2018-02-22T12:30:05.861Z,32.85
2018-02-22T12:32:34.046Z,28.23
2018-02-22T12:35:02.105Z,31.62
2018-02-22T12:37:30.189Z,20.27
2018-02-22T12:39:58.253Z,22.95
2018-02-22T12:42:27.141Z,20.80
2018-02-22T12:44:55.166Z,18.10
2018-02-22T12:47:23.997Z,20.73
2018-02-22T12:49:52.183Z,19.30
2018-02-22T12:52:21.007Z,22.20
2018-02-22T12:54:49.029Z,19.17
2018-02-22T12:57:17.100Z,19.80
2018-02-22T12:59:45.247Z,21.35
2018-02-22T13:02:13.459Z,26.50
2018-02-22T13:04:41.731Z,18.17
2018-02-22T13:07:09.899Z,19.42
2018-02-22T13:09:37.973Z,23.25
2018-02-22T13:12:06.146Z,19.52
2018-02-22T13:14:34.213Z,22.87
2018-02-22T13:17:02.291Z,17.08
2018-02-22T13:19:30.353Z,17.27
2018-02-22T13:21:58.621Z,26.75
2018-02-22T13:24:27.636Z,24.92
2018-02-22T13:26:55.565Z,18.02
2018-02-22T13:29:23.667Z,23.73
2018-02-22T13:31:51.835Z,20.58
2018-02-22T13:34:26.985Z,18.10
2018-02-22T13:36:54.941Z,30.05
2018-02-22T13:39:23.468Z,18.17
2018-02-22T13:41:51.608Z,24.98
2018-02-22T13:44:31.549Z,19.95
2018-02-22T13:46:59.841Z,22.23
2018-02-22T13:49:40.601Z,19.05
2018-02-22T13:52:08.763Z,23.80
2018-02-22T13:54:36.732Z,19.65
2018-02-22T13:57:17.910Z,22.90
2018-02-22T13:59:46.084Z,20.35
2018-02-22T14:02:27.778Z,28.95
2018-02-22T14:04:56.052Z,17.25
2018-02-22T14:07:25.259Z,20.02
2018-02-22T14:09:53.425Z,22.60
2018-02-22T14:12:21.491Z,16.83
2018-02-22T14:14:49.677Z,21.12
2018-02-22T14:17:17.841Z,19.70
2018-02-22T14:19:45.914Z,17.95
2018-02-22T14:22:13.994Z,18.92
2018-02-22T14:24:42.167Z,19.20
2018-02-22T14:27:10.339Z,17.62
2018-02-22T14:29:38.329Z,18.65
2018-02-22T14:32:07.188Z,16.27
2018-02-22T14:34:35.365Z,16.85
2018-02-22T14:37:04.050Z,24.12
2018-02-22T14:39:32.222Z,19.20
2018-02-22T14:42:00.392Z,19.50
2018-02-22T14:44:28.566Z,17.37
2018-02-22T14:46:56.640Z,16.50
2018-02-22T14:49:24.821Z,19.85
2018-02-22T14:51:52.987Z,18.10
2018-02-22T14:54:21.170Z,24.87
2018-02-22T14:56:49.126Z,22.40
2018-02-22T14:59:17.209Z,19.95
2018-02-22T15:01:45.399Z,19.40
2018-02-22T15:04:14.265Z,22.33
2018-02-22T15:06:42.947Z,24.23
2018-02-22T15:09:11.017Z,19.87
2018-02-22T15:11:39.306Z,19.70
2018-02-22T15:14:08.031Z,22.13
2018-02-22T15:16:36.156Z,21.17
2018-02-22T15:19:04.325Z,17.85
2018-02-22T15:21:32.614Z,18.85
2018-02-22T15:24:00.521Z,22.42
2018-02-22T15:26:28.654Z,21.27
2018-02-22T15:28:56.814Z,18.85
2018-02-22T15:31:25.002Z,18.92
2018-02-22T15:33:53.878Z,20.88
2018-02-22T15:36:21.949Z,19.15
2018-02-22T15:38:50.026Z,19.62
2018-02-22T15:41:18.194Z,15.27
2018-02-22T15:43:46.375Z,14.85
2018-02-22T15:46:14.544Z,14.05
2018-02-22T15:48:42.726Z,15.18
2018-02-22T15:51:10.721Z,12.52
2018-02-22T15:53:39.470Z,15.05
2018-02-22T15:56:08.375Z,13.62
2018-02-22T15:58:36.539Z,14.75
2018-02-22T16:01:04.504Z,14.63
2018-02-22T16:03:32.679Z,21.80
2018-02-22T16:06:01.784Z,15.27
2018-02-22T16:08:29.946Z,13.23
2018-02-22T16:10:58.119Z,17.95
2018-02-22T16:13:26.297Z,15.43
2018-02-22T16:15:54.468Z,20.37
2018-02-22T16:18:27.773Z,15.27
2018-02-22T16:20:56.867Z,14.25
2018-02-22T16:23:25.028Z,15.40
2018-02-22T16:25:53.109Z,20.17
2018-02-22T16:28:21.386Z,18.20
2018-02-22T16:30:49.560Z,19.65
2018-02-22T16:33:17.736Z,21.20
2018-02-22T16:35:45.999Z,16.55
2018-02-22T16:38:14.068Z,17.37
2018-02-22T16:40:42.242Z,19.58
2018-02-22T16:43:10.429Z,14.45
2018-02-22T16:45:38.487Z,17.77
2018-02-22T16:48:06.773Z,18.95
2018-02-22T16:50:34.942Z,17.45
2018-02-22T16:53:03.007Z,14.80
2018-02-22T16:55:31.181Z,19.58
2018-02-22T16:57:59.264Z,16.10
2018-02-22T17:00:28.759Z,13.62
2018-02-22T17:02:57.043Z,15.75
2018-02-22T17:05:25.210Z,15.57
2018-02-22T17:07:53.391Z,15.40
2018-02-22T17:10:21.660Z,17.25
2018-02-22T17:12:49.827Z,15.23
2018-02-22T17:15:18.006Z,18.50
2018-02-22T17:17:46.175Z,16.60
2018-02-22T17:20:14.361Z,16.05
2018-02-22T17:22:42.419Z,20.40
2018-02-22T17:25:10.598Z,18.48
2018-02-22T17:27:44.254Z,21.80
2018-02-22T17:30:17.728Z,19.42
2018-02-22T17:32:46.595Z,23.02
2018-02-22T17:35:22.977Z,26.02
2018-02-22T17:37:54.403Z,19.90
2018-02-22T17:40:27.903Z,18.77
2018-02-22T17:42:56.073Z,21.27
2018-02-22T17:45:24.247Z,18.15
2018-02-22T17:47:52.417Z,19.87
2018-02-22T17:50:20.499Z,22.15
2018-02-22T17:52:48.670Z,19.67
2018-02-22T17:55:16.847Z,22.33
2018-02-22T17:57:45.126Z,20.08
2018-02-22T18:00:13.285Z,22.10
2018-02-22T18:02:41.356Z,23.50
2018-02-22T18:05:09.426Z,23.42
2018-02-22T18:07:38.219Z,26.23
2018-02-22T18:10:06.391Z,24.85
2018-02-22T18:12:34.494Z,23.20
2018-02-22T18:15:03.567Z,24.02
2018-02-22T18:17:31.728Z,30.50
2018-02-22T18:20:00.024Z,24.20
2018-02-22T18:22:28.394Z,22.70
2018-02-22T18:24:56.669Z,26.58
2018-02-22T18:27:24.729Z,27.98
2018-02-22T18:29:52.643Z,26.15
2018-02-22T18:32:20.772Z,29.55
2018-02-22T18:34:49.664Z,30.55
2018-02-22T18:37:23.207Z,24.48
2018-02-22T18:39:51.331Z,32.08
2018-02-22T18:42:21.451Z,28.58
2018-02-22T18:44:55.107Z,27.87
2018-02-22T18:47:23.225Z,24.75
2018-02-22T18:49:51.410Z,26.85
2018-02-22T18:52:19.582Z,34.55
2018-02-22T18:54:47.749Z,38.72
2018-02-22T18:57:16.704Z,29.90
2018-02-22T18:59:44.820Z,31.60
2018-02-22T19:02:12.981Z,33.28
2018-02-22T19:04:41.271Z,32.28
2018-02-22T19:07:09.535Z,55.88
2018-02-22T19:09:38.333Z,38.17
2018-02-22T19:12:06.567Z,45.40
2018-02-22T19:14:35.500Z,40.53
2018-02-22T19:17:03.672Z,52.20
2018-02-22T19:19:31.936Z,43.03
2018-02-22T19:22:00.225Z,53.13
2018-02-22T19:24:28.389Z,37.42
2018-02-22T19:26:56.764Z,28.85
2018-02-22T19:29:24.937Z,54.08
2018-02-22T19:31:53.115Z,38.00
2018-02-22T19:34:21.300Z,35.95
2018-02-22T19:36:49.460Z,36.55
2018-02-22T19:39:18.144Z,166.07
2018-02-22T19:41:46.317Z,211.57
2018-02-22T19:44:14.390Z,128.75
2018-02-22T19:46:42.574Z,40.95
2018-02-22T19:49:10.740Z,33.63
2018-02-22T19:51:38.908Z,32.47
2018-02-22T19:54:06.983Z,38.47
2018-02-22T19:56:35.769Z,33.90
2018-02-22T19:59:03.837Z,34.20
2018-02-22T20:01:32.014Z,33.15
2018-02-22T20:04:00.187Z,35.35
2018-02-22T20:06:28.285Z,46.88
2018-02-22T20:08:57.151Z,35.40
2018-02-22T20:11:25.323Z,32.67
2018-02-22T20:13:53.608Z,35.38
2018-02-22T20:16:21.954Z,43.00
2018-02-22T20:18:50.051Z,34.17
2018-02-22T20:21:18.838Z,38.83
2018-02-22T20:23:47.019Z,44.28
2018-02-22T20:26:15.185Z,45.12
2018-02-22T20:28:43.250Z,40.00
2018-02-22T20:31:11.427Z,46.03
2018-02-22T20:33:39.602Z,43.05
2018-02-22T20:36:09.208Z,51.53
2018-02-22T20:38:37.505Z,46.03
2018-02-22T20:41:06.415Z,42.70
2018-02-22T20:43:34.547Z,57.67
2018-02-22T20:46:05.347Z,42.00
2018-02-22T20:48:33.459Z,49.97
2018-02-22T20:51:04.185Z,55.15
2018-02-22T20:53:32.575Z,49.78
2018-02-22T20:56:00.942Z,53.60
2018-02-22T20:58:28.975Z,45.42
2018-02-22T21:00:57.188Z,44.92
2018-02-22T21:03:26.077Z,48.10
2018-02-22T21:05:54.282Z,50.97
2018-02-22T21:08:23.255Z,65.43
2018-02-22T21:10:51.428Z,54.42
2018-02-22T21:13:19.602Z,50.15
2018-02-22T21:15:48.800Z,49.47
2018-02-22T21:18:16.965Z,48.72
2018-02-22T21:20:45.136Z,46.15
2018-02-22T21:23:13.212Z,53.42
2018-02-22T21:25:41.287Z,47.72
2018-02-22T21:28:09.449Z,47.53
2018-02-22T21:30:37.624Z,51.70
2018-02-22T21:33:07.230Z,54.30
2018-02-22T21:35:35.304Z,56.78
2018-02-22T21:38:03.474Z,54.08
2018-02-22T21:40:31.444Z,54.65
2018-02-22T21:42:59.616Z,48.25
2018-02-22T21:45:27.801Z,29.45
2018-02-22T21:47:56.008Z,23.80
2018-02-22T21:50:24.252Z,20.05
2018-02-22T21:52:52.524Z,17.80
2018-02-22T21:55:20.701Z,14.98
2018-02-22T21:57:48.772Z,16.40
2018-02-22T22:00:17.866Z,20.45
2018-02-22T22:02:45.927Z,17.48
2018-02-22T22:05:14.001Z,17.70
2018-02-22T22:07:42.068Z,17.10
2018-02-22T22:10:10.244Z,20.55
2018-02-22T22:12:38.317Z,13.10
2018-02-22T22:15:06.395Z,15.98
2018-02-22T22:17:34.967Z,16.37
2018-02-22T22:20:02.883Z,15.85
2018-02-22T22:22:31.120Z,14.50
2018-02-22T22:24:59.398Z,12.30
2018-02-22T22:27:28.377Z,11.70
2018-02-22T22:29:56.460Z,12.88
2018-02-22T22:32:24.520Z,15.15
2018-02-22T22:34:52.597Z,10.45
2018-02-22T22:37:21.276Z,15.13
2018-02-22T22:39:49.352Z,13.20
2018-02-22T22:42:17.525Z,10.90
2018-02-22T22:44:45.706Z,10.68
2018-02-22T22:47:13.675Z,11.00
2018-02-22T22:49:41.838Z,9.55
2018-02-22T22:52:10.011Z,13.60
2018-02-22T22:54:38.081Z,11.30
2018-02-22T22:57:06.152Z,12.80
2018-02-22T22:59:34.337Z,13.10
2018-02-22T23:02:02.512Z,13.88
2018-02-22T23:04:31.183Z,13.95
2018-02-22T23:06:59.153Z,15.43
2018-02-22T23:09:27.229Z,15.48
2018-02-22T23:11:55.300Z,15.90
2018-02-22T23:14:23.369Z,14.40
2018-02-22T23:16:51.545Z,12.98
2018-02-22T23:19:19.716Z,17.75
2018-02-22T23:21:47.787Z,12.90
2018-02-22T23:24:16.360Z,15.60
2018-02-22T23:26:44.438Z,15.77
2018-02-22T23:29:12.624Z,14.90
2018-02-22T23:31:40.799Z,13.05
2018-02-22T23:34:08.958Z,10.75
2018-02-22T23:36:37.031Z,14.87
2018-02-22T23:39:05.206Z,13.00
2018-02-22T23:44:34.938Z,13.02
2018-02-22T23:47:03.105Z,12.63
2018-02-22T23:49:31.494Z,11.18
2018-02-22T23:51:59.659Z,12.45
2018-02-22T23:54:27.842Z,11.15
2018-02-22T23:56:56.017Z,16.45
2018-02-22T23:59:24.178Z,10.77
